createdAt,value
2018-11-28T00:00:30.520Z,92.47
2018-11-28T00:01:22.711Z,93.42
2018-11-28T00:02:15.043Z,92.85
2018-11-28T00:03:07.342Z,93.13
2018-11-28T00:03:59.787Z,91.43
2018-11-28T00:04:53.362Z,91.14
2018-11-28T00:05:45.486Z,91.81
2018-11-28T00:06:37.812Z,91.43
2018-11-28T00:07:29.918Z,90.43
2018-11-28T00:08:22.412Z,90.62
2018-11-28T00:09:14.838Z,89.67
2018-11-28T00:10:07.378Z,89.96
2018-11-28T00:10:59.519Z,89.11
2018-11-28T00:11:51.678Z,89.06
2018-11-28T00:12:43.939Z,90.77
2018-11-28T00:13:36.255Z,90.58
2018-11-28T00:14:28.783Z,90.91
2018-11-28T00:15:21.207Z,91.09
2018-11-28T00:16:13.449Z,90.05
2018-11-28T00:17:05.742Z,88.92
2018-11-28T00:17:57.861Z,89.11
2018-11-28T00:18:50.739Z,89.01
2018-11-28T00:19:42.831Z,89.11
2018-11-28T00:20:35.320Z,89.11
2018-11-28T00:21:27.538Z,89.01
2018-11-28T00:22:20.041Z,88.35
2018-11-28T00:23:12.343Z,88.25
2018-11-28T00:24:04.734Z,89.2
2018-11-28T00:24:56.713Z,89.01
2018-11-28T00:25:48.622Z,89.44
2018-11-28T00:26:40.236Z,89.91
2018-11-28T00:27:32.801Z,90.2
2018-11-28T00:28:24.916Z,91.14
2018-11-28T00:29:17.287Z,91.62
2018-11-28T00:30:09.779Z,92.47
2018-11-28T00:31:01.693Z,93.99
2018-11-28T00:31:53.842Z,93.13
2018-11-28T00:32:46.036Z,93.99
2018-11-28T00:33:38.305Z,93.61
2018-11-28T00:34:30.409Z,93.61
2018-11-28T00:35:23.391Z,93.99
2018-11-28T00:36:15.128Z,94.46
2018-11-28T00:37:07.410Z,93.99
2018-11-28T00:37:59.736Z,93.7
2018-11-28T00:38:52.351Z,94.46
2018-11-28T00:39:44.899Z,94.6
2018-11-28T00:40:37.435Z,94.27
2018-11-28T00:41:29.688Z,95.79
2018-11-28T00:42:22.196Z,95.88
2018-11-28T00:43:15.366Z,95.6
2018-11-28T00:44:07.839Z,94.65
2018-11-28T00:45:00.373Z,94.84
2018-11-28T00:45:52.953Z,94.74
2018-11-28T00:46:45.300Z,95.03
2018-11-28T00:47:37.857Z,94.84
2018-11-28T00:48:30.469Z,95.5
2018-11-28T00:49:22.223Z,96.36
2018-11-28T00:50:15.107Z,94.65
2018-11-28T00:51:07.536Z,93.51
2018-11-28T00:51:59.788Z,94.46
2018-11-28T00:52:51.860Z,93.99
2018-11-28T00:53:43.977Z,94.18
2018-11-28T00:54:36.465Z,93.8
2018-11-28T00:55:29.382Z,93.8
2018-11-28T00:56:21.892Z,94.08
2018-11-28T00:57:13.610Z,94.18
2018-11-28T00:58:05.658Z,94.84
2018-11-28T00:58:57.894Z,94.74
2018-11-28T00:59:50.420Z,95.03
2018-11-28T01:00:42.351Z,94.27
2018-11-28T01:01:34.121Z,94.65
2018-11-28T01:02:26.171Z,95.03
2018-11-28T01:03:18.740Z,94.65
2018-11-28T01:04:10.771Z,95.5
2018-11-28T01:05:02.757Z,95.6
2018-11-28T01:05:55.009Z,94.84
2018-11-28T01:06:47.022Z,94.46
2018-11-28T01:07:39.245Z,94.84
2018-11-28T01:08:31.745Z,94.74
2018-11-28T01:09:22.256Z,95.69
2018-11-28T01:11:17.045Z,95.41
2018-11-28T01:12:09.545Z,95.98
2018-11-28T01:13:02.547Z,97.02
2018-11-28T01:15:29.641Z,94.46
2018-11-28T01:16:10.020Z,94.37
2018-11-28T01:16:50.416Z,95.5
2018-11-28T01:17:30.804Z,96.07
2018-11-28T01:18:11.220Z,96.73
2018-11-28T01:18:51.611Z,95.88
2018-11-28T01:19:31.983Z,95.98
2018-11-28T01:20:12.388Z,95.5
2018-11-28T01:20:52.772Z,95.31
2018-11-28T01:21:33.178Z,96.07
2018-11-28T01:22:13.526Z,97.21
2018-11-28T01:22:53.933Z,97.11
2018-11-28T01:23:34.313Z,94.42
2018-11-28T01:24:14.695Z,94.51
2018-11-28T01:24:55.103Z,94.7
2018-11-28T01:25:35.536Z,94.13
2018-11-28T01:27:55.051Z,92.61
2018-11-28T01:28:35.417Z,91.66
2018-11-28T01:29:15.813Z,92.8
2018-11-28T01:29:56.188Z,92.61
2018-11-28T01:31:53.626Z,91.95
2018-11-28T01:32:33.997Z,91.95
2018-11-28T01:33:14.860Z,91.95
2018-11-28T01:33:54.943Z,92.04
2018-11-28T01:34:35.315Z,91.66
2018-11-28T01:35:15.696Z,92.71
2018-11-28T01:35:56.065Z,92.42
2018-11-28T01:36:36.487Z,93.08
2018-11-28T01:38:40.679Z,92.52
2018-11-28T01:39:32.972Z,92.99
2018-11-28T01:40:25.151Z,93.23
2018-11-28T01:41:17.679Z,94.27
2018-11-28T01:42:09.660Z,94.13
2018-11-28T01:43:02.415Z,94.79
2018-11-28T01:43:54.744Z,93.94
2018-11-28T01:44:47.330Z,94.51
2018-11-28T01:45:39.636Z,93.18
2018-11-28T01:46:32.767Z,92.52
2018-11-28T01:47:24.984Z,92.99
2018-11-28T01:48:17.162Z,94.13
2018-11-28T01:49:09.413Z,93.46
2018-11-28T01:50:01.782Z,92.99
2018-11-28T01:50:54.252Z,93.18
2018-11-28T01:51:47.627Z,92.8
2018-11-28T01:52:39.694Z,93.27
2018-11-28T01:53:32.160Z,93.18
2018-11-28T01:54:24.754Z,93.75
2018-11-28T01:55:17.360Z,93.84
2018-11-28T01:56:09.868Z,92.99
2018-11-28T01:57:02.236Z,93.27
2018-11-28T01:57:54.649Z,93.08
2018-11-28T01:58:47.170Z,93.27
2018-11-28T01:59:39.893Z,92.52
2018-11-28T02:00:32.299Z,93.37
2018-11-28T02:01:24.114Z,94.13
2018-11-28T02:02:17.202Z,92.71
2018-11-28T02:03:09.275Z,92.14
2018-11-28T02:04:01.865Z,93.46
2018-11-28T02:04:54.183Z,93.84
2018-11-28T02:05:45.999Z,92.52
2018-11-28T02:06:38.303Z,92.14
2018-11-28T02:07:31.207Z,93.18
2018-11-28T02:08:23.453Z,92.42
2018-11-28T02:09:15.757Z,92.14
2018-11-28T02:10:07.854Z,91.76
2018-11-28T02:11:00.034Z,91.38
2018-11-28T02:11:52.380Z,91.66
2018-11-28T02:12:44.158Z,92.14
2018-11-28T02:13:36.763Z,91.57
2018-11-28T02:14:28.679Z,91.85
2018-11-28T02:15:20.388Z,92.52
2018-11-28T02:16:00.702Z,93.37
2018-11-28T02:16:41.077Z,92.52
2018-11-28T02:17:21.452Z,92.9
2018-11-28T02:18:01.965Z,92.9
2018-11-28T02:18:42.329Z,94.23
2018-11-28T02:19:22.775Z,94.32
2018-11-28T02:20:03.096Z,94.51
2018-11-28T02:20:44.282Z,93.37
2018-11-28T02:21:24.710Z,92.42
2018-11-28T02:22:05.032Z,91.38
2018-11-28T02:22:45.536Z,92.14
2018-11-28T02:23:25.885Z,92.8
2018-11-28T02:24:06.277Z,92.52
2018-11-28T02:24:46.638Z,92.99
2018-11-28T02:25:27.096Z,92.8
2018-11-28T02:26:07.469Z,90.81
2018-11-28T02:26:47.873Z,91.66
2018-11-28T02:27:28.166Z,91
2018-11-28T02:28:08.672Z,91.19
2018-11-28T02:28:49.057Z,90.62
2018-11-28T02:29:29.440Z,91.85
2018-11-28T02:30:09.838Z,91.57
2018-11-28T02:30:50.390Z,90.91
2018-11-28T02:31:30.733Z,91.66
2018-11-28T02:32:11.099Z,92.8
2018-11-28T02:32:51.482Z,91.85
2018-11-28T02:33:31.866Z,91.76
2018-11-28T02:34:12.278Z,91.95
2018-11-28T02:34:52.726Z,92.04
2018-11-28T02:35:36.776Z,92.52
2018-11-28T02:36:17.201Z,93.23
2018-11-28T02:36:57.555Z,93.99
2018-11-28T02:37:37.983Z,93.8
2018-11-28T02:38:18.419Z,95.03
2018-11-28T02:38:58.839Z,95.36
2018-11-28T02:39:39.288Z,94.23
2018-11-28T02:40:19.652Z,93.99
2018-11-28T02:41:00.084Z,94.23
2018-11-28T02:41:40.448Z,94.04
2018-11-28T02:42:20.835Z,93.56
2018-11-28T02:43:01.299Z,94.04
2018-11-28T02:43:41.669Z,94.04
2018-11-28T02:44:22.068Z,94.04
2018-11-28T02:45:02.511Z,93.8
2018-11-28T02:45:42.865Z,94.18
2018-11-28T02:46:23.275Z,94.74
2018-11-28T02:47:03.731Z,94.65
2018-11-28T02:47:44.145Z,94.46
2018-11-28T02:48:24.508Z,94.65
2018-11-28T02:49:04.913Z,94.84
2018-11-28T02:49:45.312Z,94.46
2018-11-28T02:50:25.679Z,94.27
2018-11-28T02:51:06.008Z,94.27
2018-11-28T02:51:46.436Z,94.56
2018-11-28T02:52:26.891Z,94.46
2018-11-28T02:53:07.339Z,95.03
2018-11-28T02:53:47.759Z,94.56
2018-11-28T02:54:28.186Z,95.41
2018-11-28T02:55:08.489Z,95.41
2018-11-28T02:55:48.915Z,96.07
2018-11-28T02:56:29.340Z,96.26
2018-11-28T02:57:09.748Z,95.79
2018-11-28T02:57:50.098Z,96.17
2018-11-28T02:58:30.477Z,96.92
2018-11-28T02:59:10.932Z,96.55
2018-11-28T02:59:51.335Z,95.41
2018-11-28T03:00:31.682Z,94.65
2018-11-28T03:01:12.090Z,94.56
2018-11-28T03:01:52.443Z,94.65
2018-11-28T03:02:32.793Z,95.26
2018-11-28T03:03:13.240Z,95.45
2018-11-28T03:03:53.557Z,95.45
2018-11-28T03:04:34.037Z,94.23
2018-11-28T03:05:14.494Z,93.94
2018-11-28T03:05:54.825Z,94.13
2018-11-28T03:06:35.157Z,93.94
2018-11-28T03:07:15.613Z,94.32
2018-11-28T03:07:56.003Z,93.99
2018-11-28T03:08:36.463Z,94.56
2018-11-28T03:09:16.768Z,94.51
2018-11-28T03:09:57.315Z,94.7
2018-11-28T03:10:37.679Z,94.42
2018-11-28T03:11:18.027Z,94.42
2018-11-28T03:11:58.447Z,93.65
2018-11-28T03:12:38.843Z,94.32
2018-11-28T03:13:19.245Z,93.94
2018-11-28T03:13:59.566Z,94.6
2018-11-28T03:14:40.030Z,93.65
2018-11-28T03:15:20.306Z,93.8
2018-11-28T03:16:00.791Z,94.08
2018-11-28T03:16:41.151Z,93.99
2018-11-28T03:17:21.520Z,94.18
2018-11-28T03:18:01.917Z,94.56
2018-11-28T03:18:42.317Z,94.65
2018-11-28T03:19:22.643Z,94.37
2018-11-28T03:20:03.081Z,95.69
2018-11-28T03:20:43.547Z,95.41
2018-11-28T03:21:23.861Z,96.17
2018-11-28T03:22:04.185Z,96.17
2018-11-28T03:22:44.665Z,96.55
2018-11-28T03:23:25.150Z,96.92
2018-11-28T03:24:05.547Z,97.11
2018-11-28T03:24:45.961Z,96.07
2018-11-28T03:25:26.423Z,96.07
2018-11-28T03:26:06.719Z,95.6
2018-11-28T03:26:47.129Z,95.41
2018-11-28T03:27:27.500Z,96.36
2018-11-28T03:28:07.920Z,97.35
2018-11-28T03:28:48.350Z,95.98
2018-11-28T03:29:28.686Z,96.03
2018-11-28T03:30:09.049Z,95.93
2018-11-28T03:30:49.403Z,94.51
2018-11-28T03:31:29.894Z,95.07
2018-11-28T03:32:10.283Z,94.51
2018-11-28T03:32:50.728Z,95.07
2018-11-28T03:33:31.131Z,94.89
2018-11-28T03:34:11.506Z,94.51
2018-11-28T03:34:51.887Z,94.42
2018-11-28T03:35:32.260Z,94.6
2018-11-28T03:36:12.648Z,94.74
2018-11-28T03:36:53.202Z,95.07
2018-11-28T03:37:33.583Z,95.6
2018-11-28T03:38:13.960Z,95.88
2018-11-28T03:38:54.346Z,95.6
2018-11-28T03:39:34.737Z,96.07
2018-11-28T03:40:15.158Z,96.17
2018-11-28T03:40:55.493Z,96.36
2018-11-28T03:41:35.887Z,96.73
2018-11-28T03:42:16.305Z,95.88
2018-11-28T03:42:56.730Z,96.73
2018-11-28T03:43:37.039Z,95.88
2018-11-28T03:44:17.487Z,95.69
2018-11-28T03:44:57.901Z,97.02
2018-11-28T03:45:38.165Z,97.3
2018-11-28T03:46:18.670Z,96.83
2018-11-28T03:46:59.241Z,97.02
2018-11-28T03:47:39.448Z,97.11
2018-11-28T03:48:20.267Z,96.73
2018-11-28T03:49:00.746Z,97.21
2018-11-28T03:49:41.052Z,96.83
2018-11-28T03:50:21.688Z,96.92
2018-11-28T03:51:02.123Z,96.92
2018-11-28T03:51:42.563Z,97.4
2018-11-28T03:52:22.961Z,97.3
2018-11-28T03:53:03.359Z,96.92
2018-11-28T03:53:44.562Z,96.92
2018-11-28T03:54:24.971Z,97.11
2018-11-28T03:55:05.305Z,97.02
2018-11-28T03:55:45.853Z,97.02
2018-11-28T03:56:26.548Z,96.92
2018-11-28T03:57:07.420Z,97.68
2018-11-28T03:57:48.006Z,97.3
2018-11-28T03:58:28.218Z,97.4
2018-11-28T03:59:08.573Z,97.78
2018-11-28T03:59:49.083Z,97.78
2018-11-28T04:00:29.731Z,97.21
2018-11-28T04:01:10.158Z,97.59
2018-11-28T04:01:50.410Z,97.4
2018-11-28T04:02:30.994Z,97.68
2018-11-28T04:03:11.356Z,97.49
2018-11-28T04:03:51.939Z,97.78
2018-11-28T04:04:32.250Z,97.97
2018-11-28T04:05:12.980Z,97.97
2018-11-28T04:05:53.661Z,98.35
2018-11-28T04:06:34.003Z,98.35
2018-11-28T04:07:14.388Z,98.54
2018-11-28T04:07:54.779Z,98.35
2018-11-28T04:08:35.515Z,99.1
2018-11-28T04:09:15.620Z,98.06
2018-11-28T04:09:56.098Z,98.54
2018-11-28T04:10:36.877Z,98.44
2018-11-28T04:11:17.228Z,98.35
2018-11-28T04:11:58.023Z,98.25
2018-11-28T04:12:38.429Z,97.97
2018-11-28T04:13:18.713Z,99.01
2018-11-28T04:13:59.174Z,99.39
2018-11-28T04:14:39.560Z,99.29
2018-11-28T04:15:19.846Z,99.39
2018-11-28T04:16:00.397Z,99.1
2018-11-28T04:16:40.836Z,99.2
2018-11-28T04:17:21.248Z,99.29
2018-11-28T04:18:01.944Z,99.2
2018-11-28T04:18:42.174Z,99.01
2018-11-28T04:19:22.528Z,99.1
2018-11-28T04:20:03.009Z,99.1
2018-11-28T04:20:43.442Z,98.16
2018-11-28T04:21:24.374Z,98.35
2018-11-28T04:22:04.727Z,99.39
2018-11-28T04:22:45.531Z,99.2
2018-11-28T04:23:26.397Z,99.01
2018-11-28T04:24:06.789Z,99.01
2018-11-28T04:24:47.120Z,99.2
2018-11-28T04:25:27.538Z,99.2
2018-11-28T04:26:07.981Z,98.44
2018-11-28T04:26:48.426Z,98.35
2018-11-28T04:27:28.788Z,98.35
2018-11-28T05:06:22.172Z,99.99
2018-11-28T05:07:02.604Z,99.99
2018-11-28T05:07:43.783Z,99.99
2018-11-28T05:08:24.217Z,99.67
2018-11-28T05:09:04.615Z,99.82
2018-11-28T05:09:45.029Z,99.72
2018-11-28T05:12:08.765Z,99.99
2018-11-28T05:13:39.208Z,99.99
2018-11-28T05:14:20.158Z,99.99
2018-11-28T05:15:00.524Z,99.99
2018-11-28T05:15:41.098Z,99.99
2018-11-28T05:16:21.613Z,99.99
2018-11-28T05:17:01.938Z,99.99
2018-11-28T05:17:42.484Z,99.99
2018-11-28T05:18:22.797Z,99.99
2018-11-28T05:19:03.543Z,99.72
2018-11-28T05:19:44.026Z,99.99
2018-11-28T05:20:24.975Z,99.99
2018-11-28T05:21:05.741Z,99.99
2018-11-28T05:21:46.451Z,99.99
2018-11-28T05:22:27.287Z,99.72
2018-11-28T05:23:07.642Z,99.99
2018-11-28T05:23:48.384Z,99.99
2018-11-28T05:24:28.726Z,99.99
2018-11-28T05:25:09.452Z,99.99
2018-11-28T05:25:50.061Z,99.99
2018-11-28T05:26:30.459Z,99.99
2018-11-28T05:27:11.238Z,99.99
2018-11-28T05:27:51.940Z,99.53
2018-11-28T05:28:32.184Z,99.44
2018-11-28T05:29:12.644Z,99.06
2018-11-28T05:29:53.221Z,98.49
2018-11-28T05:30:33.603Z,99.15
2018-11-28T05:31:14.178Z,98.77
2018-11-28T05:31:55.029Z,99.63
2018-11-28T05:32:35.691Z,99.82
2018-11-28T05:33:16.430Z,99.82
2018-11-28T05:33:56.498Z,99.99
2018-11-28T05:34:37.203Z,99.99
2018-11-28T05:35:17.747Z,99.99
2018-11-28T05:35:57.881Z,99.99
2018-11-28T05:36:38.400Z,99.99
2018-11-28T05:37:18.779Z,99.99
2018-11-28T05:37:59.165Z,99.72
2018-11-28T05:38:40.100Z,99.99
2018-11-28T05:39:20.699Z,99.15
2018-11-28T05:40:01.322Z,99.34
2018-11-28T05:40:41.790Z,99.06
2018-11-28T05:41:22.238Z,99.72
2018-11-28T05:42:02.850Z,99.72
2018-11-28T05:42:43.086Z,99.99
2018-11-28T05:43:23.563Z,99.34
2018-11-28T05:44:04.137Z,99.06
2018-11-28T05:44:44.706Z,98.44
2018-11-28T05:45:25.284Z,98.58
2018-11-28T05:46:05.761Z,98.63
2018-11-28T05:46:52.260Z,98.68
2018-11-28T05:47:32.715Z,99.25
2018-11-28T05:52:25.631Z,98.54
2018-11-28T05:53:06.855Z,97.69
2018-11-28T05:53:47.291Z,97.59
2018-11-28T05:54:27.671Z,97.45
2018-11-28T05:55:08.095Z,97.78
2018-11-28T05:55:48.522Z,98.63
2018-11-28T05:56:28.895Z,99.49
2018-11-28T05:57:09.286Z,98.54
2018-11-28T05:57:49.713Z,98.25
2018-11-28T05:58:30.213Z,98.54
2018-11-28T05:59:10.565Z,98.68
2018-11-28T05:59:50.930Z,98.49
2018-11-28T06:00:31.341Z,98.39
2018-11-28T06:01:12.079Z,98.21
2018-11-28T06:01:52.547Z,98.58
2018-11-28T06:02:33.021Z,98.96
2018-11-28T06:04:37.466Z,99.06
2018-11-28T06:05:29.869Z,99.72
2018-11-28T06:06:22.281Z,99.72
2018-11-28T06:07:15.710Z,99.53
2018-11-28T06:08:08.179Z,99.63
2018-11-28T06:09:00.670Z,99.99
2018-11-28T06:09:53.410Z,99.99
2018-11-28T06:10:45.699Z,99.39
2018-11-28T06:11:38.412Z,99.49
2018-11-28T06:12:30.725Z,97.88
2018-11-28T06:13:23.404Z,96.92
2018-11-28T06:14:15.790Z,97.21
2018-11-28T06:15:09.454Z,97.5
2018-11-28T06:16:01.445Z,98.25
2018-11-28T06:16:53.671Z,98.35
2018-11-28T06:17:45.605Z,98.35
2018-11-28T06:18:38.669Z,98.44
2018-11-28T06:19:31.169Z,98.16
2018-11-28T06:20:22.945Z,98.73
2018-11-28T06:21:14.949Z,99.06
2018-11-28T06:22:07.831Z,98.25
2018-11-28T06:23:00.247Z,98.92
2018-11-28T06:23:53.942Z,98.92
2018-11-28T06:24:46.064Z,98.82
2018-11-28T06:25:39.322Z,98.25
2018-11-28T06:26:33.038Z,97.97
2018-11-28T06:27:26.336Z,98.82
2018-11-28T06:28:19.286Z,99.2
2018-11-28T06:29:12.699Z,97.88
2018-11-28T06:31:38.446Z,97.31
2018-11-28T06:32:18.864Z,98.73
2018-11-28T06:32:59.261Z,98.58
2018-11-28T06:33:39.949Z,99.06
2018-11-28T06:34:21.201Z,98.87
2018-11-28T06:35:04.262Z,99.44
2018-11-28T06:35:44.637Z,99.25
2018-11-28T06:36:25.076Z,99.91
2018-11-28T06:37:05.547Z,99.53
2018-11-28T06:37:46.086Z,98.87
2018-11-28T06:38:26.457Z,99.2
2018-11-28T06:40:24.096Z,99.68
2018-11-28T06:41:01.928Z,98.44
2018-11-28T06:41:42.330Z,98.44
2018-11-28T06:42:22.733Z,98.73
2018-11-28T06:43:03.122Z,98.54
2018-11-28T06:45:02.773Z,96.08
2018-11-28T06:45:55.381Z,96.45
2018-11-28T06:46:48.591Z,96.17
2018-11-28T06:47:41.941Z,97.45
2018-11-28T06:48:36.290Z,94.51
2018-11-28T06:49:33.396Z,94.51
2018-11-28T06:50:28.575Z,94.84
2018-11-28T06:51:31.509Z,94.56
2018-11-28T06:52:35.193Z,95.17
2018-11-28T06:53:27.063Z,95.69
2018-11-28T06:54:19.385Z,96.17
2018-11-28T06:55:12.003Z,96.08
2018-11-28T06:56:04.870Z,95.5
2018-11-28T06:56:57.802Z,94.98
2018-11-28T06:57:50.965Z,95.69
2018-11-28T06:58:43.426Z,96.17
2018-11-28T07:01:33.569Z,96.45
2018-11-28T07:02:13.870Z,96.45
2018-11-28T07:02:54.109Z,95.88
2018-11-28T07:03:34.796Z,95.88
2018-11-28T07:04:15.780Z,95.79
2018-11-28T07:04:56.318Z,97.12
2018-11-28T07:05:37.048Z,95.88
2018-11-28T07:06:18.617Z,96.22
2018-11-28T07:06:59.234Z,95.55
2018-11-28T07:07:39.932Z,94.42
2018-11-28T07:08:20.667Z,94.51
2018-11-28T07:09:01.724Z,94.42
2018-11-28T07:09:41.999Z,94.51
2018-11-28T07:10:22.391Z,94.79
2018-11-28T07:11:02.889Z,94.79
2018-11-28T07:11:43.310Z,95.74
2018-11-28T07:12:23.826Z,94.98
2018-11-28T07:13:04.326Z,94.51
2018-11-28T07:13:44.623Z,94.79
2018-11-28T07:14:25.366Z,93.51
2018-11-28T07:15:05.678Z,91.52
2018-11-28T07:15:46.105Z,91.99
2018-11-28T07:16:27.106Z,91.8
2018-11-28T07:17:07.676Z,91.33
2018-11-28T07:17:47.644Z,91.38
2018-11-28T07:18:28.059Z,91.85
2018-11-28T07:19:08.670Z,91.8
2018-11-28T07:19:49.669Z,91.56
2018-11-28T07:20:32.235Z,91.75
2018-11-28T07:21:12.679Z,92.61
2018-11-28T07:21:53.044Z,93.65
2018-11-28T07:22:33.495Z,93.18
2018-11-28T07:23:13.849Z,93.27
2018-11-28T07:23:54.421Z,93.75
2018-11-28T07:24:34.925Z,93.84
2018-11-28T07:25:15.385Z,94.89
2018-11-28T07:27:34.368Z,95.31
2018-11-28T07:28:27.108Z,96.08
2018-11-28T07:29:19.650Z,96.55
2018-11-28T07:30:14.255Z,96.73
2018-11-28T07:31:06.733Z,97.5
2018-11-28T07:31:59.196Z,97.69
2018-11-28T07:32:51.638Z,97.5
2018-11-28T07:33:51.214Z,98.16
2018-11-28T07:34:43.460Z,97.78
2018-11-28T07:35:37.847Z,97.69
2018-11-28T07:36:34.986Z,98.07
2018-11-28T07:37:30.490Z,97.21
2018-11-28T07:38:26.271Z,97.69
2018-11-28T07:39:24.329Z,97.21
2018-11-28T07:40:39.060Z,97.97
2018-11-28T07:41:33.245Z,98.25
2018-11-28T07:42:41.382Z,97.78
2018-11-28T07:45:23.112Z,96.97
2018-11-28T07:46:04.041Z,96.22
2018-11-28T07:46:44.655Z,96.88
2018-11-28T07:47:25.357Z,96.22
2018-11-28T07:48:06.602Z,96.31
2018-11-28T07:48:47.585Z,96.22
2018-11-28T07:49:27.504Z,96.03
2018-11-28T07:50:08.205Z,95.93
2018-11-28T07:50:48.668Z,96.22
2018-11-28T07:51:29.447Z,95.65
2018-11-28T07:52:09.572Z,94.89
2018-11-28T07:52:50.729Z,95.74
2018-11-28T07:53:31.481Z,96.03
2018-11-28T07:54:12.550Z,95.74
2018-11-28T07:54:52.480Z,95.93
2018-11-28T07:55:33.069Z,95.46
2018-11-28T07:56:13.547Z,95.65
2018-11-28T07:56:54.073Z,96.22
2018-11-28T07:57:35.188Z,96.59
2018-11-28T07:58:15.968Z,96.22
2018-11-28T08:00:15.403Z,96.5
2018-11-28T08:00:56.457Z,96.31
2018-11-28T08:01:37.572Z,96.88
2018-11-28T08:02:17.790Z,97.07
2018-11-28T08:02:58.503Z,96.12
2018-11-28T08:03:38.994Z,96.88
2018-11-28T08:04:19.806Z,96.69
2018-11-28T08:05:00.723Z,96.69
2018-11-28T08:05:41.150Z,96.97
2018-11-28T08:06:21.596Z,96.03
2018-11-28T08:07:02.029Z,96.97
2018-11-28T08:07:42.842Z,97.02
2018-11-28T08:08:24.325Z,97.21
2018-11-28T08:09:04.323Z,97.07
2018-11-28T08:09:45.649Z,97.26
2018-11-28T08:10:25.612Z,97.83
2018-11-28T08:11:06.012Z,97.74
2018-11-28T08:11:46.394Z,97.17
2018-11-28T08:12:26.857Z,97.55
2018-11-28T08:13:07.417Z,96.97
2018-11-28T08:13:47.985Z,97.26
2018-11-28T08:14:28.472Z,96.22
2018-11-28T08:15:08.896Z,96.69
2018-11-28T08:15:49.574Z,96.41
2018-11-28T08:16:30.110Z,96.22
2018-11-28T08:17:10.561Z,96.41
2018-11-28T08:17:50.945Z,96.31
2018-11-28T08:20:20.215Z,96.69
2018-11-28T08:21:12.803Z,96.88
2018-11-28T08:22:51.532Z,95.93
2018-11-28T08:23:32.390Z,94.46
2018-11-28T08:24:13.449Z,94.18
2018-11-28T08:24:53.516Z,94.18
2018-11-28T08:25:34.078Z,93.99
2018-11-28T08:26:14.959Z,93.99
2018-11-28T08:26:58.154Z,93.13
2018-11-28T08:27:38.491Z,93.41
2018-11-28T08:28:19.558Z,92.56
2018-11-28T08:29:02.713Z,93.32
2018-11-28T08:29:44.066Z,93.41
2018-11-28T08:30:25.667Z,93.7
2018-11-28T08:31:06.519Z,94.03
2018-11-28T08:31:47.352Z,94.32
2018-11-28T08:32:28.454Z,94.32
2018-11-28T08:33:08.604Z,94.98
2018-11-28T08:33:50.371Z,95.36
2018-11-28T08:34:31.580Z,95.17
2018-11-28T08:35:12.581Z,94.51
2018-11-28T08:35:52.154Z,94.65
2018-11-28T08:36:32.701Z,94.51
2018-11-28T08:37:13.564Z,94.7
2018-11-28T08:37:54.272Z,94.6
2018-11-28T08:38:35.444Z,95.36
2018-11-28T08:39:15.709Z,96.64
2018-11-28T08:39:56.175Z,96.12
2018-11-28T08:40:36.631Z,95.74
2018-11-28T08:41:16.980Z,95.51
2018-11-28T08:41:58.201Z,96.03
2018-11-28T08:42:38.155Z,96.03
2018-11-28T08:43:19.688Z,97.26
2018-11-28T08:43:59.512Z,97.26
2018-11-28T08:44:39.991Z,97.26
2018-11-28T08:45:20.494Z,97.88
2018-11-28T08:46:00.936Z,96.97
2018-11-28T08:46:41.493Z,97.17
2018-11-28T08:47:21.986Z,98.4
2018-11-28T08:48:03.409Z,97.92
2018-11-28T08:48:44.401Z,97.45
2018-11-28T08:49:24.837Z,97.83
2018-11-28T08:50:05.423Z,97.92
2018-11-28T08:50:45.999Z,98.68
2018-11-28T08:51:26.372Z,98.97
2018-11-28T08:52:06.869Z,98.59
2018-11-28T08:52:47.359Z,98.49
2018-11-28T08:53:28.618Z,98.64
2018-11-28T08:54:09.123Z,99.26
2018-11-28T08:54:49.480Z,99.21
2018-11-28T08:55:29.951Z,97.88
2018-11-28T08:56:10.393Z,97.5
2018-11-28T08:56:51.495Z,97.31
2018-11-28T08:57:32.339Z,96.26
2018-11-28T08:58:12.777Z,95.51
2018-11-28T08:58:53.334Z,96.45
2018-11-28T08:59:34.604Z,97.31
2018-11-28T09:00:15.114Z,97.31
2018-11-28T09:00:55.615Z,96.36
2018-11-28T09:01:36.010Z,97.31
2018-11-28T09:02:16.376Z,97.97
2018-11-28T09:02:56.808Z,97.31
2018-11-28T09:03:37.199Z,96.17
2018-11-28T09:05:29.582Z,97.12
2018-11-28T09:06:09.961Z,95.89
2018-11-28T09:06:50.445Z,95.75
2018-11-28T09:07:30.954Z,94.89
2018-11-28T09:09:18.214Z,93.75
2018-11-28T09:09:59.119Z,93.56
2018-11-28T09:10:39.577Z,91.66
2018-11-28T09:11:20.048Z,92.23
2018-11-28T09:12:00.546Z,91.75
2018-11-28T09:12:40.917Z,91.85
2018-11-28T09:13:21.343Z,92.04
2018-11-28T09:14:04.351Z,91.94
2018-11-28T09:14:42.618Z,91.89
2018-11-28T09:15:23.043Z,91.89
2018-11-28T09:16:03.448Z,91.23
2018-11-28T09:16:43.936Z,92.85
2018-11-28T09:17:24.374Z,92.08
2018-11-28T09:18:04.836Z,91.04
2018-11-28T09:18:45.295Z,90.19
2018-11-28T09:20:33.914Z,90.09
2018-11-28T09:21:13.935Z,90.19
2018-11-28T09:21:54.449Z,89.71
2018-11-28T09:22:34.822Z,89.42
2018-11-28T09:23:16.939Z,90
2018-11-28T09:23:57.393Z,89.61
2018-11-28T09:24:37.768Z,90.09
2018-11-28T09:25:18.624Z,91.04
2018-11-28T09:25:58.994Z,90.66
2018-11-28T09:26:39.368Z,90.28
2018-11-28T09:27:19.841Z,90.56
2018-11-28T09:28:00.426Z,90.28
2018-11-28T09:28:41.162Z,90
2018-11-28T09:29:21.692Z,90.28
2018-11-28T09:30:03.035Z,89.71
2018-11-28T09:30:43.438Z,90.47
2018-11-28T09:33:01.775Z,91.38
2018-11-28T09:33:42.621Z,90.75
2018-11-28T09:34:23.048Z,91.09
2018-11-28T09:35:03.484Z,91.19
2018-11-28T09:35:45.263Z,91.85
2018-11-28T09:36:25.660Z,92.9
2018-11-28T09:37:06.076Z,92.61
2018-11-28T09:37:46.500Z,92.13
2018-11-28T09:38:26.907Z,92.32
2018-11-28T09:39:07.599Z,92.71
2018-11-28T09:39:48.201Z,92.99
2018-11-28T09:40:28.647Z,92.51
2018-11-28T09:41:09.053Z,90.8
2018-11-28T09:41:49.528Z,91.75
2018-11-28T09:42:29.923Z,92.04
2018-11-28T09:43:10.560Z,92.51
2018-11-28T09:43:51.130Z,92.32
2018-11-28T09:44:31.541Z,91.94
2018-11-28T09:45:12.080Z,92.61
2018-11-28T09:45:52.497Z,92.9
2018-11-28T09:46:33.286Z,92.61
2018-11-28T09:47:13.887Z,93.37
2018-11-28T09:47:54.295Z,93.37
2018-11-28T09:48:34.698Z,92.71
2018-11-28T09:49:15.886Z,91.66
2018-11-28T09:49:55.968Z,92.13
2018-11-28T09:50:36.305Z,92.32
2018-11-28T09:51:16.726Z,92.99
2018-11-28T09:51:57.193Z,93.37
2018-11-28T09:52:37.715Z,92.51
2018-11-28T09:53:18.134Z,91.94
2018-11-28T09:53:58.511Z,92.9
2018-11-28T09:54:38.924Z,92.8
2018-11-28T09:56:31.304Z,92.9
2018-11-28T09:57:14.332Z,91.66
2018-11-28T09:57:55.554Z,92.42
2018-11-28T09:58:35.623Z,92.71
2018-11-28T09:59:17.118Z,92.99
2018-11-28T09:59:56.856Z,92.8
2018-11-28T10:00:37.341Z,93.46
2018-11-28T10:01:17.735Z,92.51
2018-11-28T10:01:58.144Z,92.9
2018-11-28T10:02:38.579Z,92.61
2018-11-28T10:03:19.107Z,91.85
2018-11-28T10:03:59.652Z,92.61
2018-11-28T10:04:40.679Z,92.13
2018-11-28T10:05:21.138Z,92.32
2018-11-28T10:06:02.495Z,91.66
2018-11-28T10:06:42.934Z,91.75
2018-11-28T10:07:23.598Z,92.51
2018-11-28T10:08:04.082Z,91.75
2018-11-28T10:08:44.517Z,92.99
2018-11-28T10:09:24.898Z,93.18
2018-11-28T10:10:05.396Z,93.18
2018-11-28T10:10:45.879Z,93.75
2018-11-28T10:11:26.287Z,94.13
2018-11-28T10:12:06.731Z,92.71
2018-11-28T10:12:47.166Z,93.18
2018-11-28T10:13:27.594Z,93.56
2018-11-28T10:14:07.951Z,93.84
2018-11-28T10:14:48.368Z,93.37
2018-11-28T10:15:28.796Z,93.75
2018-11-28T10:16:09.394Z,94.13
2018-11-28T10:16:50.338Z,92.99
2018-11-28T10:17:30.247Z,91.85
2018-11-28T10:18:10.658Z,91.56
2018-11-28T10:18:51.042Z,91.56
2018-11-28T10:19:31.456Z,91.38
2018-11-28T10:20:12.112Z,91.19
2018-11-28T10:20:52.529Z,91.19
2018-11-28T10:21:32.889Z,91.85
2018-11-28T10:22:13.343Z,91.13
2018-11-28T10:22:53.738Z,91.33
2018-11-28T10:23:34.160Z,91.04
2018-11-28T10:25:44.988Z,90.37
2018-11-28T10:26:45.349Z,89.8
2018-11-28T10:27:47.386Z,90.19
2018-11-28T10:28:45.217Z,90.37
2018-11-28T11:09:07.263Z,89.8
2018-11-28T11:09:47.679Z,89.52
2018-11-28T11:10:38.141Z,89.71
2018-11-28T11:11:27.305Z,89.04
2018-11-28T11:12:09.313Z,89.14
2018-11-28T11:12:55.647Z,89.23
2018-11-28T11:13:43.085Z,88.57
2018-11-28T11:14:26.090Z,88.38
2018-11-28T11:15:09.557Z,89.04
2018-11-28T11:15:52.525Z,89.23
2018-11-28T11:16:41.040Z,88.95
2018-11-28T11:17:33.825Z,89.14
2018-11-28T11:18:22.378Z,89.14
2018-11-28T11:19:04.215Z,88.38
2018-11-28T11:19:48.602Z,88.76